sensor_id;sensor_type;location;lat;lon;timestamp;pressure;altitude;pressure_sealevel;temperature;humidity
48778;BME280;34578;0.000;0.000;2024-01-07T00:01:57;95917.13;;;18.42;50.19
48778;BME280;34578;0.000;0.000;2024-01-07T00:06:57;95938.94;;;18.52;49.39
48778;BME280;34578;0.000;0.000;2024-01-07T00:11:58;95952.47;;;18.52;49.47
48778;BME280;34578;0.000;0.000;2024-01-07T00:16:58;95949.09;;;18.52;51.58
48778;BME280;34578;0.000;0.000;2024-01-07T00:21:58;95944.88;;;18.51;50.66
48778;BME280;34578;0.000;0.000;2024-01-07T00:26:59;95945.75;;;18.50;52.24
48778;BME280;34578;0.000;0.000;2024-01-07T00:31:59;95948.28;;;18.50;50.38
48778;BME280;34578;0.000;0.000;2024-01-07T00:37:00;95952.47;;;18.52;51.33
48778;BME280;34578;0.000;0.000;2024-01-07T00:42:00;95963.47;;;18.50;47.73
48778;BME280;34578;0.000;0.000;2024-01-07T00:47:01;95952.47;;;18.51;48.57
48778;BME280;34578;0.000;0.000;2024-01-07T00:52:01;95948.28;;;18.50;47.74
48778;BME280;34578;0.000;0.000;2024-01-07T00:57:02;95943.19;;;18.50;49.41
48778;BME280;34578;0.000;0.000;2024-01-07T01:02:02;95953.34;;;18.50;47.69
48778;BME280;34578;0.000;0.000;2024-01-07T01:07:03;95949.94;;;18.51;48.34
48778;BME280;34578;0.000;0.000;2024-01-07T01:12:03;95958.38;;;18.51;48.31
48778;BME280;34578;0.000;0.000;2024-01-07T01:17:04;95960.09;;;18.51;49.22
48778;BME280;34578;0.000;0.000;2024-01-07T01:22:04;95961.81;;;18.49;48.72
48778;BME280;34578;0.000;0.000;2024-01-07T01:27:04;95960.09;;;18.51;47.21
48778;BME280;34578;0.000;0.000;2024-01-07T01:32:05;95966.81;;;18.52;48.82
48778;BME280;34578;0.000;0.000;2024-01-07T01:37:08;95971.91;;;18.52;47.57
48778;BME280;34578;0.000;0.000;2024-01-07T01:42:08;95971.03;;;18.51;50.44
48778;BME280;34578;0.000;0.000;2024-01-07T01:47:10;95964.31;;;18.50;49.28
48778;BME280;34578;0.000;0.000;2024-01-07T01:52:12;95960.09;;;18.51;49.75
48778;BME280;34578;0.000;0.000;2024-01-07T01:57:15;95970.22;;;18.51;50.37
48778;BME280;34578;0.000;0.000;2024-01-07T02:02:19;95965.16;;;18.49;47.90
48778;BME280;34578;0.000;0.000;2024-01-07T02:07:19;95975.28;;;18.51;47.35
48778;BME280;34578;0.000;0.000;2024-01-07T02:12:20;95979.50;;;18.52;48.24
48778;BME280;34578;0.000;0.000;2024-01-07T02:17:20;95982.03;;;18.52;51.80
48778;BME280;34578;0.000;0.000;2024-01-07T02:22:24;95979.50;;;18.50;48.33
48778;BME280;34578;0.000;0.000;2024-01-07T02:27:24;95977.81;;;18.51;50.81
48778;BME280;34578;0.000;0.000;2024-01-07T02:32:24;95977.81;;;18.51;48.08
48778;BME280;34578;0.000;0.000;2024-01-07T02:37:25;95982.03;;;18.52;48.71
48778;BME280;34578;0.000;0.000;2024-01-07T02:42:25;95980.38;;;18.51;48.58
48778;BME280;34578;0.000;0.000;2024-01-07T02:47:26;95975.28;;;18.52;50.68
48778;BME280;34578;0.000;0.000;2024-01-07T02:52:26;95977.81;;;18.51;49.28
48778;BME280;34578;0.000;0.000;2024-01-07T02:57:26;95965.97;;;18.51;49.78
48778;BME280;34578;0.000;0.000;2024-01-07T03:02:27;95975.28;;;18.51;49.11
48778;BME280;34578;0.000;0.000;2024-01-07T03:07:27;95970.22;;;18.51;50.44
48778;BME280;34578;0.000;0.000;2024-01-07T03:12:27;95975.28;;;18.51;48.01
48778;BME280;34578;0.000;0.000;2024-01-07T03:17:28;95970.22;;;18.51;48.02
48778;BME280;34578;0.000;0.000;2024-01-07T03:22:28;95976.97;;;18.52;49.99
48778;BME280;34578;0.000;0.000;2024-01-07T03:27:29;95979.56;;;18.49;51.37
48778;BME280;34578;0.000;0.000;2024-01-07T03:32:29;95979.50;;;18.50;52.30
48778;BME280;34578;0.000;0.000;2024-01-07T03:37:30;95980.38;;;18.51;49.01
48778;BME280;34578;0.000;0.000;2024-01-07T03:42:30;95988.81;;;18.50;50.28
48778;BME280;34578;0.000;0.000;2024-01-07T03:47:30;95978.75;;;18.44;51.80
48778;BME280;34578;0.000;0.000;2024-01-07T03:52:32;95983.75;;;18.50;50.90
48778;BME280;34578;0.000;0.000;2024-01-07T03:57:33;95973.75;;;18.38;52.04
48778;BME280;34578;0.000;0.000;2024-01-07T04:02:33;95993.91;;;18.50;49.26
48778;BME280;34578;0.000;0.000;2024-01-07T04:07:34;95989.63;;;18.52;49.65
48778;BME280;34578;0.000;0.000;2024-01-07T04:12:34;95989.63;;;18.52;48.42
48778;BME280;34578;0.000;0.000;2024-01-07T04:17:34;95990.50;;;18.51;49.41
48778;BME280;34578;0.000;0.000;2024-01-07T04:22:35;96003.19;;;18.51;49.06
48778;BME280;34578;0.000;0.000;2024-01-07T04:27:35;95998.97;;;18.50;48.64
48778;BME280;34578;0.000;0.000;2024-01-07T04:32:35;95994.72;;;18.50;47.97
48778;BME280;34578;0.000;0.000;2024-01-07T04:37:37;96002.31;;;18.52;49.19
48778;BME280;34578;0.000;0.000;2024-01-07T04:42:37;96002.31;;;18.52;49.16
48778;BME280;34578;0.000;0.000;2024-01-07T04:47:37;96005.72;;;18.51;47.58
48778;BME280;34578;0.000;0.000;2024-01-07T04:52:38;96006.53;;;18.51;48.10
48778;BME280;34578;0.000;0.000;2024-01-07T04:57:38;96006.53;;;18.51;51.36
48778;BME280;34578;0.000;0.000;2024-01-07T05:02:38;96015.03;;;18.49;53.10
48778;BME280;34578;0.000;0.000;2024-01-07T05:07:39;96015.00;;;18.50;52.40
48778;BME280;34578;0.000;0.000;2024-01-07T05:12:39;96011.63;;;18.50;48.91
48778;BME280;34578;0.000;0.000;2024-01-07T05:17:39;96016.72;;;18.48;50.50
48778;BME280;34578;0.000;0.000;2024-01-07T05:22:40;96015.00;;;18.52;48.80
48778;BME280;34578;0.000;0.000;2024-01-07T05:27:40;96025.13;;;18.52;50.24
48778;BME280;34578;0.000;0.000;2024-01-07T05:32:40;96027.66;;;18.52;47.77
48778;BME280;34578;0.000;0.000;2024-01-07T05:37:41;96032.72;;;18.52;47.01
48778;BME280;34578;0.000;0.000;2024-01-07T05:42:41;96019.34;;;18.38;47.04
48778;BME280;34578;0.000;0.000;2024-01-07T05:47:41;96027.72;;;18.47;47.20
48778;BME280;34578;0.000;0.000;2024-01-07T05:52:42;96042.88;;;18.50;46.45
48778;BME280;34578;0.000;0.000;2024-01-07T05:57:43;96046.25;;;18.51;47.43
48778;BME280;34578;0.000;0.000;2024-01-07T06:02:43;96047.94;;;18.52;46.16
48778;BME280;34578;0.000;0.000;2024-01-07T06:07:44;96047.94;;;18.52;46.07
48778;BME280;34578;0.000;0.000;2024-01-07T06:12:44;96056.41;;;18.51;47.02
48778;BME280;34578;0.000;0.000;2024-01-07T06:17:44;96064.81;;;18.53;48.58
48778;BME280;34578;0.000;0.000;2024-01-07T06:22:46;96058.09;;;18.50;49.10
48778;BME280;34578;0.000;0.000;2024-01-07T06:27:47;96071.56;;;18.54;50.29
48778;BME280;34578;0.000;0.000;2024-01-07T06:32:47;96069.06;;;18.52;50.16
48778;BME280;34578;0.000;0.000;2024-01-07T06:37:48;96069.91;;;18.53;51.28
48778;BME280;34578;0.000;0.000;2024-01-07T06:42:49;96073.28;;;18.52;50.73
48778;BME280;34578;0.000;0.000;2024-01-07T06:47:49;96082.56;;;18.53;51.38
48778;BME280;34578;0.000;0.000;2024-01-07T06:52:50;96075.81;;;18.53;50.55
48778;BME280;34578;0.000;0.000;2024-01-07T06:57:50;96080.88;;;18.53;50.84
48778;BME280;34578;0.000;0.000;2024-01-07T07:02:50;96081.72;;;18.54;49.53
48778;BME280;34578;0.000;0.000;2024-01-07T07:07:51;96087.66;;;18.51;50.30
48778;BME280;34578;0.000;0.000;2024-01-07T07:12:51;96097.72;;;18.56;51.01
48778;BME280;34578;0.000;0.000;2024-01-07T07:17:51;96096.91;;;18.57;49.04
48778;BME280;34578;0.000;0.000;2024-01-07T07:22:54;96097.72;;;18.57;49.09
48778;BME280;34578;0.000;0.000;2024-01-07T07:27:54;96096.91;;;18.54;47.76
48778;BME280;34578;0.000;0.000;2024-01-07T07:32:58;96118.81;;;18.61;49.60
48778;BME280;34578;0.000;0.000;2024-01-07T07:37:59;96117.09;;;18.63;49.28
48778;BME280;34578;0.000;0.000;2024-01-07T07:42:59;96126.47;;;18.56;52.31
48778;BME280;34578;0.000;0.000;2024-01-07T07:47:59;96125.78;;;18.41;51.45
48778;BME280;34578;0.000;0.000;2024-01-07T07:53:00;96142.72;;;18.36;52.26
48778;BME280;34578;0.000;0.000;2024-01-07T07:58:00;96132.47;;;18.48;51.28
48778;BME280;34578;0.000;0.000;2024-01-07T08:03:00;96145.94;;;18.54;51.40
48778;BME280;34578;0.000;0.000;2024-01-07T08:08:01;96140.00;;;18.55;51.38
48778;BME280;34578;0.000;0.000;2024-01-07T08:13:02;96133.25;;;18.54;51.39
48778;BME280;34578;0.000;0.000;2024-01-07T08:18:03;96152.69;;;18.57;51.42
48778;BME280;34578;0.000;0.000;2024-01-07T08:23:03;96150.97;;;18.56;51.05
48778;BME280;34578;0.000;0.000;2024-01-07T08:28:05;96157.75;;;18.57;51.23
48778;BME280;34578;0.000;0.000;2024-01-07T08:33:05;96157.75;;;18.55;51.41
48778;BME280;34578;0.000;0.000;2024-01-07T08:38:05;96161.09;;;18.56;51.31
48778;BME280;34578;0.000;0.000;2024-01-07T08:43:06;96161.16;;;18.54;51.59
48778;BME280;34578;0.000;0.000;2024-01-07T08:48:07;96161.16;;;18.53;51.88
48778;BME280;34578;0.000;0.000;2024-01-07T08:53:07;96162.13;;;18.38;52.34
48778;BME280;34578;0.000;0.000;2024-01-07T08:58:07;96167.25;;;18.32;52.63
48778;BME280;34578;0.000;0.000;2024-01-07T09:03:08;96179.91;;;18.26;52.84
48778;BME280;34578;0.000;0.000;2024-01-07T09:08:08;96179.91;;;18.28;52.74
48778;BME280;34578;0.000;0.000;2024-01-07T09:13:11;96186.69;;;18.26;52.63
48778;BME280;34578;0.000;0.000;2024-01-07T09:18:11;96190.94;;;18.24;53.01
48778;BME280;34578;0.000;0.000;2024-01-07T09:23:12;96198.56;;;18.19;53.33
48778;BME280;34578;0.000;0.000;2024-01-07T09:28:12;96202.78;;;18.19;53.18
48778;BME280;34578;0.000;0.000;2024-01-07T09:33:13;96193.53;;;18.12;53.39
48778;BME280;34578;0.000;0.000;2024-01-07T09:38:15;96216.31;;;18.16;53.39
48778;BME280;34578;0.000;0.000;2024-01-07T09:43:16;96214.63;;;18.15;53.38
48778;BME280;34578;0.000;0.000;2024-01-07T09:48:16;96210.34;;;18.23;52.51
48778;BME280;34578;0.000;0.000;2024-01-07T09:53:20;96210.28;;;18.37;51.50
48778;BME280;34578;0.000;0.000;2024-01-07T09:58:20;96216.25;;;18.27;53.04
48778;BME280;34578;0.000;0.000;2024-01-07T10:03:21;96220.50;;;18.29;52.88
48778;BME280;34578;0.000;0.000;2024-01-07T10:08:21;96210.31;;;18.31;52.30
48778;BME280;34578;0.000;0.000;2024-01-07T10:13:22;96207.81;;;18.29;53.03
48778;BME280;34578;0.000;0.000;2024-01-07T10:18:22;96212.84;;;18.32;53.45
48778;BME280;34578;0.000;0.000;2024-01-07T10:23:23;96210.31;;;18.34;53.04
48778;BME280;34578;0.000;0.000;2024-01-07T10:28:23;96216.25;;;18.31;53.21
48778;BME280;34578;0.000;0.000;2024-01-07T10:33:23;96209.50;;;18.30;54.07
48778;BME280;34578;0.000;0.000;2024-01-07T10:38:24;96211.22;;;18.24;53.98
48778;BME280;34578;0.000;0.000;2024-01-07T10:43:26;96221.31;;;18.27;53.82
48778;BME280;34578;0.000;0.000;2024-01-07T10:48:31;96212.00;;;18.29;54.41
48778;BME280;34578;0.000;0.000;2024-01-07T10:53:35;96209.50;;;18.32;54.57
48778;BME280;34578;0.000;0.000;2024-01-07T10:58:39;96211.19;;;18.28;55.13
48778;BME280;34578;0.000;0.000;2024-01-07T11:09:01;96203.53;;;18.36;54.00
48778;BME280;34578;0.000;0.000;2024-01-07T11:14:03;96196.78;;;18.35;54.31
48778;BME280;34578;0.000;0.000;2024-01-07T11:19:04;96196.78;;;18.36;53.62
48778;BME280;34578;0.000;0.000;2024-01-07T11:24:05;96193.41;;;18.36;52.81
48778;BME280;34578;0.000;0.000;2024-01-07T11:29:08;96190.03;;;18.34;54.58
48778;BME280;34578;0.000;0.000;2024-01-07T11:34:09;96196.78;;;18.35;53.78
48778;BME280;34578;0.000;0.000;2024-01-07T11:39:09;96195.13;;;18.34;54.53
48778;BME280;34578;0.000;0.000;2024-01-07T11:44:11;96190.06;;;18.31;55.25
48778;BME280;34578;0.000;0.000;2024-01-07T11:49:13;96184.16;;;18.32;55.24
48778;BME280;34578;0.000;0.000;2024-01-07T11:54:15;96194.28;;;18.30;55.04
48778;BME280;34578;0.000;0.000;2024-01-07T11:59:16;96190.06;;;18.31;55.10
48778;BME280;34578;0.000;0.000;2024-01-07T12:04:16;96188.41;;;18.24;55.79
48778;BME280;34578;0.000;0.000;2024-01-07T12:09:17;96195.16;;;18.25;55.79
48778;BME280;34578;0.000;0.000;2024-01-07T12:14:18;96189.22;;;18.27;55.73
48778;BME280;34578;0.000;0.000;2024-01-07T12:19:19;96191.75;;;18.26;55.06
48778;BME280;34578;0.000;0.000;2024-01-07T12:24:24;96201.03;;;18.31;55.21
48778;BME280;34578;0.000;0.000;2024-01-07T12:29:24;96198.47;;;18.36;54.70
48778;BME280;34578;0.000;0.000;2024-01-07T12:34:26;96200.16;;;18.40;54.56
48778;BME280;34578;0.000;0.000;2024-01-07T12:39:26;96194.19;;;18.44;54.87
48778;BME280;34578;0.000;0.000;2024-01-07T12:44:28;96200.84;;;18.54;55.09
48778;BME280;34578;0.000;0.000;2024-01-07T12:49:29;96199.91;;;18.64;54.69
48778;BME280;34578;0.000;0.000;2024-01-07T12:54:29;96194.75;;;18.76;54.75
48778;BME280;34578;0.000;0.000;2024-01-07T12:59:30;96203.94;;;18.87;54.28
48778;BME280;34578;0.000;0.000;2024-01-07T13:04:30;96200.50;;;18.94;54.29
48778;BME280;34578;0.000;0.000;2024-01-07T13:09:30;96211.47;;;18.95;54.49
48778;BME280;34578;0.000;0.000;2024-01-07T13:14:31;96208.00;;;19.02;54.57
48778;BME280;34578;0.000;0.000;2024-01-07T13:19:31;96209.69;;;19.03;55.04
48778;BME280;34578;0.000;0.000;2024-01-07T13:24:31;96212.22;;;19.03;55.20
48778;BME280;34578;0.000;0.000;2024-01-07T13:29:32;96212.94;;;19.14;54.19
48778;BME280;34578;0.000;0.000;2024-01-07T13:34:32;96226.59;;;19.04;53.59
48778;BME280;34578;0.000;0.000;2024-01-07T13:39:33;96224.94;;;19.00;53.91
48778;BME280;34578;0.000;0.000;2024-01-07T13:44:34;96216.41;;;19.07;52.06
48778;BME280;34578;0.000;0.000;2024-01-07T13:49:34;96213.22;;;18.87;50.82
48778;BME280;34578;0.000;0.000;2024-01-07T13:54:35;96228.44;;;18.87;50.52
48778;BME280;34578;0.000;0.000;2024-01-07T13:59:35;96223.41;;;18.81;51.96
48778;BME280;34578;0.000;0.000;2024-01-07T14:04:36;96229.31;;;18.84;52.14
48778;BME280;34578;0.000;0.000;2024-01-07T14:09:36;96236.09;;;18.82;53.31
48778;BME280;34578;0.000;0.000;2024-01-07T14:14:36;96241.09;;;18.90;53.15
48778;BME280;34578;0.000;0.000;2024-01-07T14:19:37;96243.66;;;18.87;53.18
48778;BME280;34578;0.000;0.000;2024-01-07T14:24:37;96242.84;;;18.86;53.28
48778;BME280;34578;0.000;0.000;2024-01-07T14:29:38;96255.53;;;18.86;53.32
48778;BME280;34578;0.000;0.000;2024-01-07T14:34:41;96262.31;;;18.83;53.99
48778;BME280;34578;0.000;0.000;2024-01-07T14:39:41;96266.53;;;18.82;53.46
48778;BME280;34578;0.000;0.000;2024-01-07T14:44:41;96270.78;;;18.82;53.34
48778;BME280;34578;0.000;0.000;2024-01-07T14:49:42;96265.72;;;18.79;53.11
48778;BME280;34578;0.000;0.000;2024-01-07T14:54:42;96277.56;;;18.77;53.36
48778;BME280;34578;0.000;0.000;2024-01-07T14:59:43;96286.03;;;18.74;53.52
48778;BME280;34578;0.000;0.000;2024-01-07T15:04:43;96288.63;;;18.70;53.78
48778;BME280;34578;0.000;0.000;2024-01-07T15:09:44;96300.44;;;18.71;54.21
48778;BME280;34578;0.000;0.000;2024-01-07T15:14:45;96303.81;;;18.70;52.59
48778;BME280;34578;0.000;0.000;2024-01-07T15:19:45;96315.69;;;18.68;51.80
48778;BME280;34578;0.000;0.000;2024-01-07T15:24:46;96318.22;;;18.69;51.60
48778;BME280;34578;0.000;0.000;2024-01-07T15:29:46;96318.22;;;18.68;51.32
48778;BME280;34578;0.000;0.000;2024-01-07T15:34:47;96325.81;;;18.68;51.85
48778;BME280;34578;0.000;0.000;2024-01-07T15:39:50;96333.44;;;18.65;52.37
48778;BME280;34578;0.000;0.000;2024-01-07T15:44:52;96341.91;;;18.64;51.62
48778;BME280;34578;0.000;0.000;2024-01-07T15:49:52;96343.66;;;18.53;53.38
48778;BME280;34578;0.000;0.000;2024-01-07T15:54:53;96344.50;;;18.55;53.52
48778;BME280;34578;0.000;0.000;2024-01-07T15:59:53;96350.41;;;18.57;52.75
48778;BME280;34578;0.000;0.000;2024-01-07T16:04:53;96358.88;;;18.51;54.24
48778;BME280;34578;0.000;0.000;2024-01-07T16:09:54;96364.81;;;18.50;53.89
48778;BME280;34578;0.000;0.000;2024-01-07T16:14:54;96366.50;;;18.48;52.55
48778;BME280;34578;0.000;0.000;2024-01-07T16:19:55;96372.44;;;18.49;52.25
48778;BME280;34578;0.000;0.000;2024-01-07T16:24:55;96381.72;;;18.47;48.96
48778;BME280;34578;0.000;0.000;2024-01-07T16:29:55;96381.72;;;18.47;47.94
48778;BME280;34578;0.000;0.000;2024-01-07T16:34:56;96389.38;;;18.41;48.03
48778;BME280;34578;0.000;0.000;2024-01-07T16:39:56;96390.22;;;18.40;47.41
48778;BME280;34578;0.000;0.000;2024-01-07T16:44:58;96392.75;;;18.40;48.07
48778;BME280;34578;0.000;0.000;2024-01-07T16:49:58;96391.06;;;18.40;49.43
48778;BME280;34578;0.000;0.000;2024-01-07T16:54:58;96400.34;;;18.41;48.80
48778;BME280;34578;0.000;0.000;2024-01-07T16:59:59;96406.25;;;18.40;48.15
48778;BME280;34578;0.000;0.000;2024-01-07T17:04:59;96410.47;;;18.41;51.34
48778;BME280;34578;0.000;0.000;2024-01-07T17:10:01;96420.63;;;18.43;49.75
48778;BME280;34578;0.000;0.000;2024-01-07T17:15:02;96421.41;;;18.48;50.28
48778;BME280;34578;0.000;0.000;2024-01-07T17:20:03;96429.88;;;18.50;50.06
48778;BME280;34578;0.000;0.000;2024-01-07T17:25:07;96416.41;;;18.39;50.65
48778;BME280;34578;0.000;0.000;2024-01-07T17:30:08;96434.94;;;18.53;50.66
48778;BME280;34578;0.000;0.000;2024-01-07T17:35:09;96443.38;;;18.52;50.69
48778;BME280;34578;0.000;0.000;2024-01-07T17:40:10;96444.25;;;18.52;51.79
48778;BME280;34578;0.000;0.000;2024-01-07T17:45:11;96456.94;;;18.45;51.54
48778;BME280;34578;0.000;0.000;2024-01-07T17:50:14;96461.97;;;18.48;52.70
48778;BME280;34578;0.000;0.000;2024-01-07T17:55:14;96456.97;;;18.36;54.07
48778;BME280;34578;0.000;0.000;2024-01-07T18:00:16;96462.03;;;18.39;52.68
48778;BME280;34578;0.000;0.000;2024-01-07T18:05:17;96469.66;;;18.37;53.52
48778;BME280;34578;0.000;0.000;2024-01-07T18:10:17;96477.22;;;18.39;51.90
48778;BME280;34578;0.000;0.000;2024-01-07T18:15:18;96481.47;;;18.31;54.27
48778;BME280;34578;0.000;0.000;2024-01-07T18:20:18;96487.41;;;18.30;53.93
48778;BME280;34578;0.000;0.000;2024-01-07T18:25:20;96492.47;;;18.30;53.86
48778;BME280;34578;0.000;0.000;2024-01-07T18:30:20;96490.75;;;18.29;53.51
48778;BME280;34578;0.000;0.000;2024-01-07T18:35:20;96501.75;;;18.28;53.34
48778;BME280;34578;0.000;0.000;2024-01-07T18:40:21;96497.53;;;18.27;53.22
48778;BME280;34578;0.000;0.000;2024-01-07T18:45:21;96497.53;;;18.24;53.37
48778;BME280;34578;0.000;0.000;2024-01-07T18:50:23;96499.22;;;18.22;53.51
48778;BME280;34578;0.000;0.000;2024-01-07T18:55:26;96507.66;;;18.27;53.09
48778;BME280;34578;0.000;0.000;2024-01-07T19:00:26;96514.41;;;18.31;52.65
48778;BME280;34578;0.000;0.000;2024-01-07T19:05:27;96524.56;;;18.34;52.81
48778;BME280;34578;0.000;0.000;2024-01-07T19:10:27;96522.00;;;18.35;53.05
48778;BME280;34578;0.000;0.000;2024-01-07T19:15:29;96530.50;;;18.33;52.77
48778;BME280;34578;0.000;0.000;2024-01-07T19:20:29;96531.34;;;18.32;52.47
48778;BME280;34578;0.000;0.000;2024-01-07T19:25:33;96534.69;;;18.37;51.69
48778;BME280;34578;0.000;0.000;2024-01-07T19:30:36;96540.59;;;18.36;51.67
48778;BME280;34578;0.000;0.000;2024-01-07T19:35:37;96544.84;;;18.34;52.49
48778;BME280;34578;0.000;0.000;2024-01-07T19:40:37;96549.09;;;18.32;52.45
48778;BME280;34578;0.000;0.000;2024-01-07T19:45:39;96549.91;;;18.31;52.67
48778;BME280;34578;0.000;0.000;2024-01-07T19:50:44;96553.28;;;18.27;52.70
48778;BME280;34578;0.000;0.000;2024-01-07T19:55:49;96557.50;;;18.31;52.41
48778;BME280;34578;0.000;0.000;2024-01-07T20:00:51;96563.41;;;18.27;52.10
48778;BME280;34578;0.000;0.000;2024-01-07T20:05:52;96558.34;;;18.30;52.34
48778;BME280;34578;0.000;0.000;2024-01-07T20:10:54;96560.03;;;18.28;52.07
48778;BME280;34578;0.000;0.000;2024-01-07T20:15:56;96570.16;;;18.28;51.86
48778;BME280;34578;0.000;0.000;2024-01-07T20:20:56;96563.41;;;18.27;52.16
48778;BME280;34578;0.000;0.000;2024-01-07T20:25:57;96573.56;;;18.30;51.67
48778;BME280;34578;0.000;0.000;2024-01-07T20:30:57;96568.47;;;18.27;52.09
48778;BME280;34578;0.000;0.000;2024-01-07T20:35:59;96577.78;;;18.25;51.88
48778;BME280;34578;0.000;0.000;2024-01-07T20:40:59;96576.91;;;18.23;52.00
48778;BME280;34578;0.000;0.000;2024-01-07T20:46:00;96582.00;;;18.20;51.96
48778;BME280;34578;0.000;0.000;2024-01-07T20:51:00;96592.97;;;18.25;51.62
48778;BME280;34578;0.000;0.000;2024-01-07T20:56:01;96600.56;;;18.23;51.92
48778;BME280;34578;0.000;0.000;2024-01-07T21:01:01;96598.91;;;18.24;51.67
48778;BME280;34578;0.000;0.000;2024-01-07T21:06:02;96600.59;;;18.25;51.57
48778;BME280;34578;0.000;0.000;2024-01-07T21:11:03;96598.91;;;18.24;51.30
48778;BME280;34578;0.000;0.000;2024-01-07T21:16:04;96603.09;;;18.22;51.82
48778;BME280;34578;0.000;0.000;2024-01-07T21:21:05;96604.78;;;18.23;51.45
48778;BME280;34578;0.000;0.000;2024-01-07T21:26:05;96600.56;;;18.22;51.96
48778;BME280;34578;0.000;0.000;2024-01-07T21:31:06;96608.19;;;18.20;52.81
48778;BME280;34578;0.000;0.000;2024-01-07T21:36:09;96603.94;;;18.21;53.20
48778;BME280;34578;0.000;0.000;2024-01-07T21:41:11;96612.41;;;18.20;53.65
48778;BME280;34578;0.000;0.000;2024-01-07T21:46:11;96613.25;;;18.17;53.77
48778;BME280;34578;0.000;0.000;2024-01-07T21:51:14;96615.78;;;18.19;52.10
48778;BME280;34578;0.000;0.000;2024-01-07T21:56:15;96623.38;;;18.14;53.95
48778;BME280;34578;0.000;0.000;2024-01-07T22:01:15;96619.16;;;18.06;53.47
48778;BME280;34578;0.000;0.000;2024-01-07T22:06:15;96626.78;;;18.10;53.89
48778;BME280;34578;0.000;0.000;2024-01-07T22:11:16;96624.25;;;18.09;53.50
48778;BME280;34578;0.000;0.000;2024-01-07T22:16:17;96627.63;;;18.08;53.20
48778;BME280;34578;0.000;0.000;2024-01-07T22:21:19;96636.06;;;18.07;53.46
48778;BME280;34578;0.000;0.000;2024-01-07T22:26:20;96635.22;;;18.06;53.25
48778;BME280;34578;0.000;0.000;2024-01-07T22:31:20;96615.78;;;17.92;53.28
48778;BME280;34578;0.000;0.000;2024-01-07T22:36:21;96635.19;;;18.05;53.44
48778;BME280;34578;0.000;0.000;2024-01-07T22:41:21;96634.34;;;18.03;53.14
48778;BME280;34578;0.000;0.000;2024-01-07T22:46:21;96641.13;;;18.04;52.99
48778;BME280;34578;0.000;0.000;2024-01-07T22:51:22;96638.59;;;18.02;53.15
48778;BME280;34578;0.000;0.000;2024-01-07T22:56:22;96643.66;;;18.04;52.87
48778;BME280;34578;0.000;0.000;2024-01-07T23:01:26;96647.88;;;18.02;52.77
48778;BME280;34578;0.000;0.000;2024-01-07T23:06:28;96651.25;;;18.01;52.80
48778;BME280;34578;0.000;0.000;2024-01-07T23:11:28;96653.78;;;17.99;52.83
48778;BME280;34578;0.000;0.000;2024-01-07T23:16:29;96653.78;;;17.99;52.41
48778;BME280;34578;0.000;0.000;2024-01-07T23:21:29;96655.47;;;18.00;52.62
48778;BME280;34578;0.000;0.000;2024-01-07T23:26:30;96658.00;;;18.02;52.21
48778;BME280;34578;0.000;0.000;2024-01-07T23:31:30;96656.31;;;18.01;52.28
48778;BME280;34578;0.000;0.000;2024-01-07T23:36:30;96656.34;;;17.98;51.78
48778;BME280;34578;0.000;0.000;2024-01-07T23:41:31;96653.78;;;18.01;52.26
48778;BME280;34578;0.000;0.000;2024-01-07T23:46:31;96653.81;;;18.02;51.69
48778;BME280;34578;0.000;0.000;2024-01-07T23:51:32;96657.16;;;17.98;51.70
48778;BME280;34578;0.000;0.000;2024-01-07T23:56:36;96660.56;;;17.99;51.70
